createdAt,value
2018-08-30T00:00:16.429Z,97.90
2018-08-30T00:02:44.544Z,97.80
2018-08-30T00:05:12.696Z,97.70
2018-08-30T00:07:40.831Z,97.60
2018-08-30T00:10:09.052Z,97.10
2018-08-30T00:12:37.396Z,97.30
2018-08-30T00:15:05.958Z,97.70
2018-08-30T00:17:34.187Z,97.40
2018-08-30T00:20:08.810Z,97.40
2018-08-30T00:22:37.019Z,97.60
2018-08-30T00:25:05.172Z,97.90
2018-08-30T00:27:33.303Z,97.80
2018-08-30T00:30:01.455Z,97.10
2018-08-30T00:32:29.569Z,97.70
2018-08-30T00:34:57.708Z,98.50
2018-08-30T00:37:25.841Z,99.50
2018-08-30T00:39:54.008Z,99.50
2018-08-30T00:42:22.148Z,99.10
2018-08-30T00:44:50.312Z,99.00
2018-08-30T00:47:20.520Z,98.50
2018-08-30T00:49:49.044Z,98.50
2018-08-30T00:52:17.308Z,98.40
2018-08-30T00:54:45.684Z,98.30
2018-08-30T00:57:13.818Z,97.90
2018-08-30T00:59:41.935Z,98.70
2018-08-30T01:02:10.080Z,99.40
2018-08-30T01:04:38.259Z,99.30
2018-08-30T01:07:06.451Z,99.50
2018-08-30T01:09:34.562Z,99.50
2018-08-30T01:12:02.663Z,99.80
2018-08-30T01:14:30.822Z,99.80
2018-08-30T01:16:58.939Z,99.70
2018-08-30T01:19:27.060Z,99.80
2018-08-30T01:21:55.209Z,99.60
2018-08-30T01:24:23.422Z,98.90
2018-08-30T01:26:51.542Z,99.10
2018-08-30T01:29:19.647Z,98.80
2018-08-30T01:31:48.100Z,98.80
2018-08-30T01:34:16.428Z,98.80
2018-08-30T01:36:45.381Z,99.30
2018-08-30T01:39:13.483Z,99.10
2018-08-30T01:41:42.756Z,99.40
2018-08-30T01:44:11.540Z,99.90
2018-08-30T01:46:39.676Z,99.90
2018-08-30T01:49:08.008Z,99.80
2018-08-30T01:51:36.141Z,99.90
2018-08-30T01:54:04.259Z,99.90
2018-08-30T01:56:32.364Z,99.50
2018-08-30T01:59:00.491Z,99.50
2018-08-30T02:01:28.611Z,99.70
2018-08-30T02:03:56.713Z,99.40
2018-08-30T02:06:24.859Z,99.30
2018-08-30T02:08:52.987Z,99.10
2018-08-30T02:11:21.103Z,98.80
2018-08-30T02:13:49.219Z,98.40
2018-08-30T02:16:17.364Z,98.70
2018-08-30T02:18:45.515Z,98.70
2018-08-30T02:21:13.632Z,98.10
2018-08-30T02:23:41.775Z,99.00
2018-08-30T02:26:09.876Z,98.80
2018-08-30T02:28:38.019Z,98.60
2018-08-30T02:31:06.755Z,98.70
2018-08-30T02:33:34.887Z,98.60
2018-08-30T02:36:02.981Z,98.60
2018-08-30T02:38:31.131Z,98.40
2018-08-30T02:40:59.366Z,98.50
2018-08-30T02:43:27.588Z,98.00
2018-08-30T02:45:55.876Z,98.60
2018-08-30T02:48:23.992Z,98.10
2018-08-30T02:50:52.108Z,97.80
2018-08-30T02:53:20.260Z,98.10
2018-08-30T02:55:48.367Z,98.00
2018-08-30T02:58:16.500Z,98.40
2018-08-30T03:00:44.603Z,98.80
2018-08-30T03:03:12.708Z,98.50
2018-08-30T03:05:41.106Z,98.40
2018-08-30T03:08:09.564Z,98.70
2018-08-30T03:10:37.665Z,99.00
2018-08-30T03:13:05.797Z,98.70
2018-08-30T03:15:33.908Z,99.30
2018-08-30T03:18:02.020Z,99.40
2018-08-30T03:20:30.168Z,99.00
2018-08-30T03:22:58.308Z,98.70
2018-08-30T03:25:26.464Z,98.40
2018-08-30T03:27:54.809Z,99.90
2018-08-30T03:30:23.020Z,99.30
2018-08-30T03:32:51.062Z,99.00
2018-08-30T03:35:19.236Z,98.90
2018-08-30T03:37:47.331Z,98.80
2018-08-30T03:40:15.462Z,98.40
2018-08-30T03:42:44.233Z,98.40
2018-08-30T03:45:12.358Z,98.50
2018-08-30T03:47:40.470Z,98.80
2018-08-30T03:50:08.606Z,98.90
2018-08-30T03:52:37.391Z,99.10
2018-08-30T03:55:05.541Z,98.80
2018-08-30T03:57:33.583Z,98.70
2018-08-30T04:00:01.709Z,98.50
2018-08-30T04:02:29.830Z,98.40
2018-08-30T04:04:58.206Z,98.30
2018-08-30T04:07:26.375Z,98.10
2018-08-30T04:09:54.515Z,98.40
2018-08-30T04:12:22.635Z,98.30
2018-08-30T04:14:50.815Z,99.10
2018-08-30T04:17:18.954Z,98.60
2018-08-30T04:19:47.060Z,98.60
2018-08-30T04:22:15.225Z,98.60
2018-08-30T04:24:44.315Z,98.50
2018-08-30T04:27:12.530Z,98.30
2018-08-30T04:29:40.557Z,97.90
2018-08-30T04:32:08.674Z,98.60
2018-08-30T04:34:36.779Z,98.70
2018-08-30T04:37:04.954Z,98.30
2018-08-30T04:39:33.060Z,98.60
2018-08-30T04:42:01.185Z,99.10
2018-08-30T04:44:29.319Z,98.60
2018-08-30T04:46:57.443Z,99.00
2018-08-30T04:49:25.573Z,98.80
2018-08-30T04:51:53.693Z,99.10
2018-08-30T04:54:21.930Z,99.10
2018-08-30T04:56:50.075Z,99.10
2018-08-30T04:59:18.192Z,99.00
2018-08-30T05:01:46.358Z,98.90
2018-08-30T05:04:14.482Z,99.20
2018-08-30T05:06:42.600Z,98.90
2018-08-30T05:09:11.905Z,98.50
2018-08-30T05:11:40.144Z,98.90
2018-08-30T05:14:08.596Z,98.70
2018-08-30T05:16:37.149Z,99.00
2018-08-30T05:19:05.603Z,98.80
2018-08-30T05:21:33.968Z,98.60
2018-08-30T05:24:02.116Z,98.90
2018-08-30T05:26:30.248Z,98.70
2018-08-30T05:28:58.440Z,99.00
2018-08-30T05:31:26.575Z,98.80
2018-08-30T05:33:54.711Z,98.60
2018-08-30T05:36:22.848Z,98.90
2018-08-30T05:38:50.992Z,99.10
2018-08-30T05:41:19.196Z,99.20
2018-08-30T05:43:47.342Z,99.00
2018-08-30T05:46:15.497Z,98.60
2018-08-30T05:48:45.083Z,99.20
2018-08-30T05:51:13.216Z,99.10
2018-08-30T05:53:41.331Z,98.90
2018-08-30T05:56:09.420Z,99.10
2018-08-30T05:58:37.596Z,99.10
2018-08-30T06:01:05.700Z,98.90
2018-08-30T06:03:33.836Z,98.60
2018-08-30T06:06:03.019Z,98.30
2018-08-30T06:08:31.336Z,98.40
2018-08-30T06:10:59.614Z,98.30
2018-08-30T06:13:27.738Z,99.10
2018-08-30T06:15:55.839Z,99.20
2018-08-30T06:18:24.243Z,99.30
2018-08-30T06:20:52.396Z,98.80
2018-08-30T06:23:20.792Z,98.90
2018-08-30T06:25:49.043Z,99.50
2018-08-30T06:28:17.153Z,99.20
2018-08-30T06:30:45.316Z,99.20
2018-08-30T06:33:13.428Z,98.90
2018-08-30T06:35:41.560Z,99.20
2018-08-30T06:38:09.631Z,98.80
2018-08-30T06:40:37.748Z,98.40
2018-08-30T06:43:05.865Z,97.90
2018-08-30T06:45:34.063Z,98.10
2018-08-30T06:48:02.082Z,98.30
2018-08-30T06:50:30.236Z,98.30
2018-08-30T06:52:58.375Z,98.30
2018-08-30T06:55:26.512Z,98.10
2018-08-30T06:57:55.120Z,98.10
2018-08-30T07:00:23.259Z,98.20
2018-08-30T07:02:52.215Z,98.30
2018-08-30T07:05:20.352Z,98.30
2018-08-30T07:07:48.491Z,97.60
2018-08-30T07:10:16.640Z,97.90
2018-08-30T07:12:44.772Z,98.40
2018-08-30T07:15:12.895Z,98.60
2018-08-30T07:17:41.040Z,98.40
2018-08-30T07:20:09.229Z,98.00
2018-08-30T07:22:37.356Z,98.30
2018-08-30T07:25:06.079Z,97.80
2018-08-30T07:27:34.185Z,97.80
2018-08-30T07:30:02.343Z,98.30
2018-08-30T07:32:30.511Z,97.60
2018-08-30T07:34:58.841Z,98.90
2018-08-30T07:37:27.411Z,99.20
2018-08-30T07:39:55.571Z,98.10
2018-08-30T07:42:23.711Z,96.90
2018-08-30T07:44:51.874Z,97.30
2018-08-30T07:47:20.054Z,97.30
2018-08-30T07:49:48.144Z,96.80
2018-08-30T07:52:16.256Z,95.80
2018-08-30T07:54:44.634Z,95.70
2018-08-30T07:57:12.762Z,96.20
2018-08-30T07:59:40.876Z,95.40
2018-08-30T08:02:09.008Z,95.10
2018-08-30T08:04:37.112Z,94.20
2018-08-30T08:07:05.367Z,95.00
2018-08-30T08:09:33.752Z,94.30
2018-08-30T08:12:01.907Z,92.50
2018-08-30T08:14:30.056Z,93.60
2018-08-30T08:16:58.176Z,93.30
2018-08-30T08:19:26.304Z,93.60
2018-08-30T08:21:54.467Z,93.40
2018-08-30T08:24:22.611Z,92.10
2018-08-30T08:26:50.767Z,92.30
2018-08-30T08:29:18.886Z,92.00
2018-08-30T08:31:47.020Z,91.80
2018-08-30T08:34:15.260Z,92.50
2018-08-30T08:36:43.380Z,92.90
2018-08-30T08:39:11.487Z,90.90
2018-08-30T08:41:39.586Z,90.90
2018-08-30T08:44:08.026Z,91.80
2018-08-30T08:46:36.111Z,90.80
2018-08-30T08:49:04.214Z,92.00
2018-08-30T08:51:32.501Z,90.80
2018-08-30T08:54:00.704Z,87.70
2018-08-30T08:56:28.813Z,86.40
2018-08-30T08:58:57.018Z,80.60
2018-08-30T09:01:25.107Z,74.80
2018-08-30T09:03:53.149Z,73.60
2018-08-30T09:06:21.260Z,77.40
2018-08-30T09:08:49.359Z,82.50
2018-08-30T09:11:17.491Z,82.40
2018-08-30T09:13:45.630Z,82.50
2018-08-30T09:16:13.741Z,76.70
2018-08-30T09:18:41.840Z,75.00
2018-08-30T09:21:10.088Z,73.00
2018-08-30T09:23:38.175Z,75.80
2018-08-30T09:26:06.291Z,80.40
2018-08-30T09:28:34.392Z,79.00
2018-08-30T09:31:02.546Z,74.90
2018-08-30T09:33:30.584Z,68.50
2018-08-30T09:35:58.694Z,62.10
2018-08-30T09:38:26.850Z,57.50
2018-08-30T09:40:54.964Z,57.90
2018-08-30T09:43:23.088Z,60.50
2018-08-30T09:45:51.206Z,59.10
2018-08-30T09:48:19.304Z,56.40
2018-08-30T09:50:47.428Z,53.40
2018-08-30T09:53:15.530Z,52.80
2018-08-30T09:55:43.718Z,51.50
2018-08-30T09:58:11.786Z,55.90
2018-08-30T10:00:45.201Z,56.70
2018-08-30T10:03:13.838Z,58.00
2018-08-30T10:05:41.946Z,59.10
2018-08-30T10:08:10.059Z,57.40
2018-08-30T10:10:38.196Z,53.80
2018-08-30T10:13:06.355Z,51.10
2018-08-30T10:15:34.459Z,48.50
2018-08-30T10:18:02.583Z,45.20
2018-08-30T10:20:30.691Z,44.60
2018-08-30T10:22:58.956Z,46.80
2018-08-30T10:25:27.129Z,48.70
2018-08-30T10:27:55.169Z,50.50
2018-08-30T10:30:23.299Z,49.70
2018-08-30T10:32:51.460Z,51.40
2018-08-30T10:35:20.006Z,50.80
2018-08-30T10:37:48.403Z,51.20
2018-08-30T10:40:16.533Z,50.50
2018-08-30T10:42:45.042Z,51.30
2018-08-30T10:45:13.103Z,48.40
2018-08-30T10:47:41.229Z,47.90
2018-08-30T10:50:09.333Z,47.00
2018-08-30T10:52:37.463Z,49.10
2018-08-30T10:55:05.702Z,50.90
2018-08-30T10:57:33.945Z,51.40
2018-08-30T11:00:02.068Z,52.50
2018-08-30T11:02:30.213Z,54.70
2018-08-30T11:04:58.332Z,54.20
2018-08-30T11:07:26.465Z,50.90
2018-08-30T11:09:54.621Z,51.30
2018-08-30T11:12:22.691Z,49.30
2018-08-30T11:14:51.401Z,47.90
2018-08-30T11:17:20.112Z,46.30
2018-08-30T11:19:48.228Z,45.40
2018-08-30T11:22:16.341Z,46.30
2018-08-30T11:24:45.112Z,46.00
2018-08-30T11:27:13.216Z,49.30
2018-08-30T11:29:41.348Z,46.90
2018-08-30T11:32:09.462Z,48.50
2018-08-30T11:34:37.564Z,46.30
2018-08-30T11:37:05.686Z,45.30
2018-08-30T11:39:33.883Z,44.30
2018-08-30T11:42:01.968Z,46.00
2018-08-30T11:44:30.112Z,48.50
2018-08-30T11:46:58.220Z,49.10
2018-08-30T11:49:26.335Z,50.90
2018-08-30T11:51:54.469Z,51.00
2018-08-30T11:54:22.767Z,50.30
2018-08-30T11:56:51.465Z,49.30
2018-08-30T11:59:20.082Z,49.30
2018-08-30T12:01:48.237Z,52.00
2018-08-30T12:04:17.588Z,53.40
2018-08-30T12:06:45.746Z,54.70
2018-08-30T12:09:14.700Z,55.80
2018-08-30T12:11:42.900Z,56.50
2018-08-30T12:14:10.977Z,53.60
2018-08-30T12:16:39.127Z,49.70
2018-08-30T12:19:07.241Z,48.40
2018-08-30T12:21:35.385Z,45.70
2018-08-30T12:24:03.500Z,43.90
2018-08-30T12:26:31.648Z,44.10
2018-08-30T12:29:00.789Z,43.40
2018-08-30T12:31:28.926Z,42.40
2018-08-30T12:33:57.038Z,41.80
2018-08-30T12:36:25.235Z,42.20
2018-08-30T12:38:53.372Z,42.20
2018-08-30T12:41:21.542Z,39.60
2018-08-30T12:43:49.935Z,37.00
2018-08-30T12:46:18.656Z,40.20
2018-08-30T12:48:47.225Z,40.60
2018-08-30T12:51:15.501Z,40.30
2018-08-30T12:53:44.603Z,41.50
2018-08-30T12:56:12.983Z,40.80
2018-08-30T12:58:41.091Z,43.20
2018-08-30T13:01:09.382Z,42.60
2018-08-30T13:03:37.401Z,41.20
2018-08-30T13:06:05.862Z,42.00
2018-08-30T13:08:34.050Z,41.50
2018-08-30T13:11:02.018Z,40.70
2018-08-30T13:13:31.198Z,40.10
2018-08-30T13:15:59.344Z,42.10
2018-08-30T13:18:27.373Z,40.60
2018-08-30T13:20:55.562Z,41.80
2018-08-30T13:23:23.611Z,42.10
2018-08-30T13:25:51.698Z,42.30
2018-08-30T13:28:19.846Z,41.40
2018-08-30T13:30:48.976Z,41.20
2018-08-30T13:33:19.907Z,42.00
2018-08-30T13:35:46.747Z,41.70
2018-08-30T13:38:14.966Z,43.10
2018-08-30T13:40:43.199Z,43.70
2018-08-30T13:43:11.116Z,44.60
2018-08-30T13:45:39.248Z,45.60
2018-08-30T13:48:07.797Z,45.60
2018-08-30T13:50:35.937Z,43.80
2018-08-30T13:53:03.936Z,43.60
2018-08-30T13:55:31.971Z,43.30
2018-08-30T13:58:00.107Z,43.00
2018-08-30T14:00:28.485Z,42.40
2018-08-30T14:02:56.492Z,42.70
2018-08-30T14:05:24.659Z,44.00
2018-08-30T14:07:52.825Z,44.70
2018-08-30T14:10:21.255Z,45.00
2018-08-30T14:12:49.336Z,45.70
2018-08-30T14:15:17.665Z,45.30
2018-08-30T14:17:45.589Z,45.40
2018-08-30T14:20:13.723Z,46.00
2018-08-30T14:22:41.887Z,44.20
2018-08-30T14:25:10.016Z,43.60
2018-08-30T14:27:38.193Z,44.60
2018-08-30T14:30:06.417Z,44.60
2018-08-30T14:32:34.526Z,45.30
2018-08-30T14:35:02.811Z,46.50
2018-08-30T14:37:31.011Z,46.00
2018-08-30T14:39:59.439Z,45.10
2018-08-30T14:42:27.630Z,43.90
2018-08-30T14:44:55.717Z,44.10
2018-08-30T14:47:24.002Z,43.90
2018-08-30T14:49:52.691Z,43.30
2018-08-30T14:52:21.020Z,44.20
2018-08-30T14:54:49.107Z,44.30
2018-08-30T14:57:17.216Z,43.20
2018-08-30T14:59:46.064Z,43.00
2018-08-30T15:02:14.127Z,42.90
2018-08-30T15:04:42.270Z,42.90
2018-08-30T15:07:10.440Z,42.90
2018-08-30T15:09:38.566Z,44.00
2018-08-30T15:12:06.804Z,43.90
2018-08-30T15:14:34.968Z,44.50
2018-08-30T15:17:03.169Z,45.20
2018-08-30T15:19:31.273Z,44.90
2018-08-30T15:21:59.418Z,45.50
2018-08-30T15:24:27.611Z,44.90
2018-08-30T15:27:01.535Z,46.20
2018-08-30T15:29:29.709Z,45.30
2018-08-30T15:31:58.039Z,45.70
2018-08-30T15:34:26.524Z,46.50
2018-08-30T15:36:55.122Z,45.40
2018-08-30T15:39:23.316Z,45.70
2018-08-30T15:41:51.448Z,46.40
2018-08-30T15:44:19.941Z,46.40
2018-08-30T15:46:48.069Z,46.40
2018-08-30T15:49:16.220Z,46.70
2018-08-30T15:51:44.416Z,45.70
2018-08-30T15:54:12.684Z,45.30
2018-08-30T15:56:40.829Z,45.60
2018-08-30T15:59:08.997Z,45.70
2018-08-30T16:01:37.123Z,45.70
2018-08-30T16:04:05.316Z,45.30
2018-08-30T16:06:33.453Z,45.90
2018-08-30T16:09:01.587Z,46.30
2018-08-30T16:11:29.721Z,46.70
2018-08-30T16:13:57.889Z,45.20
2018-08-30T16:16:25.997Z,45.70
2018-08-30T16:18:54.260Z,46.70
2018-08-30T16:21:22.299Z,46.70
2018-08-30T16:23:50.703Z,47.10
2018-08-30T16:26:18.893Z,48.50
2018-08-30T16:28:47.035Z,50.20
2018-08-30T16:31:15.253Z,49.50
2018-08-30T16:33:43.343Z,50.40
2018-08-30T16:36:11.496Z,50.50
2018-08-30T16:38:39.615Z,50.00
2018-08-30T16:41:07.871Z,49.40
2018-08-30T16:43:35.947Z,48.80
2018-08-30T16:46:05.004Z,48.30
2018-08-30T16:48:33.633Z,49.60
2018-08-30T16:51:02.352Z,49.20
2018-08-30T16:53:32.087Z,49.90
2018-08-30T16:56:00.498Z,50.00
2018-08-30T16:58:28.544Z,50.20
2018-08-30T17:00:56.645Z,50.80
2018-08-30T17:03:24.844Z,51.60
2018-08-30T17:05:53.036Z,53.30
2018-08-30T17:08:21.168Z,54.60
2018-08-30T17:10:50.039Z,55.30
2018-08-30T17:13:19.420Z,55.30
2018-08-30T17:15:47.741Z,56.10
2018-08-30T17:18:16.016Z,56.90
2018-08-30T17:20:47.998Z,57.20
2018-08-30T17:23:16.174Z,57.00
2018-08-30T17:25:44.984Z,56.80
2018-08-30T17:28:13.366Z,57.50
2018-08-30T17:30:42.042Z,57.80
2018-08-30T17:33:10.532Z,58.40
2018-08-30T17:35:38.791Z,59.30
2018-08-30T17:38:06.964Z,58.70
2018-08-30T17:40:35.120Z,58.30
2018-08-30T17:43:03.244Z,58.50
2018-08-30T17:45:31.662Z,59.00
2018-08-30T17:47:59.670Z,59.00
2018-08-30T17:50:27.922Z,59.00
2018-08-30T17:52:55.949Z,59.20
2018-08-30T17:55:24.229Z,59.50
2018-08-30T17:57:52.541Z,59.60
2018-08-30T18:00:20.509Z,60.00
2018-08-30T18:02:48.648Z,59.90
2018-08-30T18:05:16.792Z,61.60
2018-08-30T18:07:45.298Z,61.40
2018-08-30T18:10:13.445Z,61.40
2018-08-30T18:12:41.556Z,62.40
2018-08-30T18:15:11.755Z,63.30
2018-08-30T18:17:39.959Z,63.80
2018-08-30T18:20:08.130Z,64.70
2018-08-30T18:22:36.268Z,64.40
2018-08-30T18:25:04.555Z,64.50
2018-08-30T18:27:32.695Z,65.70
2018-08-30T18:30:00.860Z,66.90
2018-08-30T18:32:28.995Z,67.60
2018-08-30T18:34:57.177Z,67.50
2018-08-30T18:37:25.270Z,67.90
2018-08-30T18:39:53.399Z,68.00
2018-08-30T18:42:21.576Z,69.00
2018-08-30T18:44:49.741Z,69.30
2018-08-30T18:47:17.888Z,69.80
2018-08-30T18:49:46.327Z,70.70
2018-08-30T18:52:14.457Z,71.30
2018-08-30T18:54:42.611Z,71.90
2018-08-30T18:57:10.772Z,72.40
2018-08-30T18:59:39.296Z,72.50
2018-08-30T19:02:07.456Z,72.60
2018-08-30T19:04:35.588Z,73.80
2018-08-30T19:07:03.732Z,73.90
2018-08-30T19:09:31.860Z,74.60
2018-08-30T19:11:59.983Z,75.00
2018-08-30T19:14:28.177Z,75.70
2018-08-30T19:17:01.792Z,76.20
2018-08-30T19:19:29.911Z,76.60
2018-08-30T19:21:58.056Z,77.80
2018-08-30T19:24:31.644Z,77.50
2018-08-30T19:26:59.776Z,77.60
2018-08-30T19:29:27.968Z,78.50
2018-08-30T19:31:56.111Z,79.50
2018-08-30T19:34:24.291Z,79.80
2018-08-30T19:36:52.459Z,80.10
2018-08-30T19:39:20.647Z,80.50
2018-08-30T19:41:48.800Z,80.90
2018-08-30T19:44:17.136Z,81.90
2018-08-30T19:46:45.251Z,82.00
2018-08-30T19:49:13.461Z,82.70
2018-08-30T19:51:41.619Z,83.20
2018-08-30T19:54:10.125Z,83.90
2018-08-30T19:56:38.750Z,84.10
2018-08-30T19:59:06.901Z,84.30
2018-08-30T20:01:35.072Z,84.00
2018-08-30T20:04:03.194Z,84.70
2018-08-30T20:06:31.337Z,85.00
2018-08-30T20:08:59.488Z,85.00
2018-08-30T20:13:55.528Z,83.70
2018-08-30T20:16:23.684Z,84.60
2018-08-30T20:18:51.812Z,85.60
2018-08-30T20:21:19.946Z,85.40
2018-08-30T20:23:48.063Z,85.30
2018-08-30T20:26:16.697Z,85.70
2018-08-30T20:28:44.879Z,85.90
2018-08-30T20:31:13.015Z,86.00
2018-08-30T20:33:41.208Z,86.10
2018-08-30T20:36:09.400Z,86.40
2018-08-30T20:38:37.572Z,87.30
2018-08-30T20:43:33.689Z,86.80
2018-08-30T20:55:53.675Z,88.10
2018-08-30T21:08:14.159Z,89.50
2018-08-30T21:10:42.287Z,89.30
2018-08-30T21:13:10.575Z,88.60
2018-08-30T21:23:02.610Z,89.20
2018-08-30T21:27:58.668Z,88.90
2018-08-30T21:37:50.504Z,88.90
2018-08-30T21:40:18.643Z,88.20
2018-08-30T21:50:10.469Z,87.70
2018-08-30T21:55:06.727Z,88.50
2018-08-30T22:07:27.169Z,88.10
2018-08-30T22:12:23.164Z,88.20
2018-08-30T22:14:51.291Z,89.00
2018-08-30T22:17:19.523Z,88.60
2018-08-30T22:19:47.624Z,88.30
2018-08-30T22:22:15.748Z,88.30
2018-08-30T22:24:43.851Z,87.90
2018-08-30T22:27:11.995Z,88.70
2018-08-30T22:29:40.843Z,90.10
2018-08-30T22:32:08.971Z,89.50
2018-08-30T22:34:37.128Z,89.50
2018-08-30T22:37:05.255Z,89.50
2018-08-30T22:39:33.370Z,90.10
2018-08-30T22:42:01.492Z,90.30
2018-08-30T22:44:29.624Z,90.50
2018-08-30T22:46:57.756Z,90.60
2018-08-30T22:49:25.950Z,90.40
2018-08-30T22:51:54.096Z,90.80
2018-08-30T22:54:22.268Z,90.90
2018-08-30T22:56:50.404Z,91.20
2018-08-30T22:59:18.551Z,91.20
2018-08-30T23:01:46.857Z,91.30
2018-08-30T23:04:15.154Z,91.50
2018-08-30T23:06:43.329Z,91.50
2018-08-30T23:09:11.712Z,91.30
2018-08-30T23:11:39.870Z,91.50
2018-08-30T23:14:08.385Z,91.70
2018-08-30T23:16:36.740Z,91.80
2018-08-30T23:19:04.974Z,91.70
2018-08-30T23:21:33.487Z,92.30
2018-08-30T23:24:01.730Z,91.90
2018-08-30T23:26:29.943Z,92.00
2018-08-30T23:28:58.651Z,91.70
2018-08-30T23:31:26.780Z,92.10
2018-08-30T23:33:55.236Z,91.90
2018-08-30T23:36:23.355Z,91.90
2018-08-30T23:38:51.517Z,91.80
2018-08-30T23:41:19.692Z,92.00
2018-08-30T23:43:48.443Z,91.80
2018-08-30T23:46:17.058Z,91.70
2018-08-30T23:48:45.188Z,91.80
2018-08-30T23:51:13.303Z,91.80
2018-08-30T23:53:41.501Z,91.50
2018-08-30T23:56:10.142Z,91.10
2018-08-30T23:58:49.720Z,90.90
